sensor_id;sensor_type;location;lat;lon;timestamp;pressure;altitude;pressure_sealevel;temperature;humidity
71764;BME280;59602;52.142;5.408;2023-01-29T00:01:45;103156.25;;;3.56;82.90
71764;BME280;59602;52.142;5.408;2023-01-29T00:04:13;103148.16;;;3.56;83.03
71764;BME280;59602;52.142;5.408;2023-01-29T00:06:40;103152.19;;;3.58;83.55
71764;BME280;59602;52.142;5.408;2023-01-29T00:09:06;103142.75;;;3.61;83.08
71764;BME280;59602;52.142;5.408;2023-01-29T00:11:33;103139.50;;;3.64;82.87
71764;BME280;59602;52.142;5.408;2023-01-29T00:14:00;103130.38;;;3.65;82.84
71764;BME280;59602;52.142;5.408;2023-01-29T00:16:27;103129.28;;;3.66;82.95
71764;BME280;59602;52.142;5.408;2023-01-29T00:18:53;103118.78;;;3.69;82.52
71764;BME280;59602;52.142;5.408;2023-01-29T00:21:21;103103.97;;;3.72;82.54
71764;BME280;59602;52.142;5.408;2023-01-29T00:23:49;103114.22;;;3.70;82.67
71764;BME280;59602;52.142;5.408;2023-01-29T00:26:17;103104.28;;;3.65;83.02
71764;BME280;59602;52.142;5.408;2023-01-29T00:28:43;103101.34;;;3.62;82.96
71764;BME280;59602;52.142;5.408;2023-01-29T00:31:16;103108.34;;;3.58;82.96
71764;BME280;59602;52.142;5.408;2023-01-29T00:33:43;103110.22;;;3.57;83.31
71764;BME280;59602;52.142;5.408;2023-01-29T00:36:11;103113.19;;;3.56;83.48
71764;BME280;59602;52.142;5.408;2023-01-29T00:38:39;103119.94;;;3.53;83.42
71764;BME280;59602;52.142;5.408;2023-01-29T00:41:07;103117.78;;;3.55;83.13
71764;BME280;59602;52.142;5.408;2023-01-29T00:43:52;103116.44;;;3.58;83.05
71764;BME280;59602;52.142;5.408;2023-01-29T00:46:37;103118.03;;;3.59;82.99
71764;BME280;59602;52.142;5.408;2023-01-29T00:49:04;103111.81;;;3.63;83.28
71764;BME280;59602;52.142;5.408;2023-01-29T00:51:32;103112.63;;;3.64;83.09
71764;BME280;59602;52.142;5.408;2023-01-29T00:53:59;103111.28;;;3.66;83.05
71764;BME280;59602;52.142;5.408;2023-01-29T00:56:27;103106.16;;;3.65;83.22
71764;BME280;59602;52.142;5.408;2023-01-29T00:58:55;103099.16;;;3.64;83.57
71764;BME280;59602;52.142;5.408;2023-01-29T01:01:22;103106.16;;;3.65;83.18
71764;BME280;59602;52.142;5.408;2023-01-29T01:04:09;103094.88;;;3.63;83.27
71764;BME280;59602;52.142;5.408;2023-01-29T01:06:37;103098.91;;;3.65;83.33
71764;BME280;59602;52.142;5.408;2023-01-29T01:09:08;103103.75;;;3.63;83.30
71764;BME280;59602;52.142;5.408;2023-01-29T01:11:53;103090.03;;;3.65;83.36
71764;BME280;59602;52.142;5.408;2023-01-29T01:14:20;103092.72;;;3.65;83.55
71764;BME280;59602;52.142;5.408;2023-01-29T01:16:47;103088.69;;;3.62;83.10
71764;BME280;59602;52.142;5.408;2023-01-29T01:19:14;103077.16;;;3.62;83.28
71764;BME280;59602;52.142;5.408;2023-01-29T01:21:42;103083.03;;;3.64;83.49
71764;BME280;59602;52.142;5.408;2023-01-29T01:24:11;103078.75;;;3.63;83.55
71764;BME280;59602;52.142;5.408;2023-01-29T01:26:38;103083.84;;;3.64;84.01
71764;BME280;59602;52.142;5.408;2023-01-29T01:29:05;103090.28;;;3.63;83.45
71764;BME280;59602;52.142;5.408;2023-01-29T01:31:32;103092.97;;;3.63;83.43
71764;BME280;59602;52.142;5.408;2023-01-29T01:33:59;103094.88;;;3.63;83.10
71764;BME280;59602;52.142;5.408;2023-01-29T01:36:26;103099.47;;;3.62;83.52
71764;BME280;59602;52.142;5.408;2023-01-29T01:38:53;103107.75;;;3.66;82.96
71764;BME280;59602;52.142;5.408;2023-01-29T01:41:20;103105.38;;;3.64;83.03
71764;BME280;59602;52.142;5.408;2023-01-29T01:43:50;103103.75;;;3.63;83.30
71764;BME280;59602;52.142;5.408;2023-01-29T01:46:18;103098.09;;;3.65;83.38
71764;BME280;59602;52.142;5.408;2023-01-29T01:48:47;103107.75;;;3.66;83.28
71764;BME280;59602;52.142;5.408;2023-01-29T01:51:17;103100.53;;;3.66;83.43
71764;BME280;59602;52.142;5.408;2023-01-29T01:53:53;103108.28;;;3.68;83.33
71764;BME280;59602;52.142;5.408;2023-01-29T01:56:27;103101.56;;;3.70;82.88
71764;BME280;59602;52.142;5.408;2023-01-29T01:58:59;103112.88;;;3.67;83.33
71764;BME280;59602;52.142;5.408;2023-01-29T02:01:26;103101.59;;;3.65;83.48
71764;BME280;59602;52.142;5.408;2023-01-29T02:03:59;103096.75;;;3.67;83.11
71764;BME280;59602;52.142;5.408;2023-01-29T02:06:46;103095.38;;;3.70;83.43
71764;BME280;59602;52.142;5.408;2023-01-29T02:09:34;103090.56;;;3.67;83.28
71764;BME280;59602;52.142;5.408;2023-01-29T02:12:05;103103.47;;;3.65;83.30
71764;BME280;59602;52.142;5.408;2023-01-29T02:14:33;103102.91;;;3.68;82.95
71764;BME280;59602;52.142;5.408;2023-01-29T02:17:05;103103.75;;;3.68;83.45
71764;BME280;59602;52.142;5.408;2023-01-29T02:19:44;103097.00;;;3.66;83.36
71764;BME280;59602;52.142;5.408;2023-01-29T02:22:28;103090.03;;;3.65;83.40
71764;BME280;59602;52.142;5.408;2023-01-29T02:27:40;103101.06;;;3.63;83.44
71764;BME280;59602;52.142;5.408;2023-01-29T02:30:27;103105.63;;;3.63;83.56
71764;BME280;59602;52.142;5.408;2023-01-29T02:33:01;103101.06;;;3.63;83.89
71764;BME280;59602;52.142;5.408;2023-01-29T02:35:39;103106.72;;;3.62;83.62
71764;BME280;59602;52.142;5.408;2023-01-29T02:38:18;103106.47;;;3.58;83.63
71764;BME280;59602;52.142;5.408;2023-01-29T02:40:55;103122.91;;;3.51;83.07
71764;BME280;59602;52.142;5.408;2023-01-29T02:43:40;103105.44;;;3.49;83.70
71764;BME280;59602;52.142;5.408;2023-01-29T02:48:54;103115.88;;;3.50;83.69
71764;BME280;59602;52.142;5.408;2023-01-29T02:51:30;103128.28;;;3.51;83.45
71764;BME280;59602;52.142;5.408;2023-01-29T02:54:05;103120.75;;;3.53;83.69
71764;BME280;59602;52.142;5.408;2023-01-29T02:56:46;103112.09;;;3.57;83.39
71764;BME280;59602;52.142;5.408;2023-01-29T02:59:19;103113.75;;;3.58;83.55
71764;BME280;59602;52.142;5.408;2023-01-29T03:01:50;103117.50;;;3.57;83.74
71764;BME280;59602;52.142;5.408;2023-01-29T03:04:26;103110.50;;;3.56;83.69
71764;BME280;59602;52.142;5.408;2023-01-29T03:06:58;103113.19;;;3.56;83.78
71764;BME280;59602;52.142;5.408;2023-01-29T03:09:36;103109.72;;;3.55;83.86
71764;BME280;59602;52.142;5.408;2023-01-29T03:12:18;103104.34;;;3.55;84.21
71764;BME280;59602;52.142;5.408;2023-01-29T03:15:06;103097.34;;;3.54;84.01
71764;BME280;59602;52.142;5.408;2023-01-29T03:20:15;103090.88;;;3.55;84.19
71764;BME280;59602;52.142;5.408;2023-01-29T03:22:49;103086.31;;;3.56;84.15
71764;BME280;59602;52.142;5.408;2023-01-29T03:25:20;103087.63;;;3.58;83.98
71764;BME280;59602;52.142;5.408;2023-01-29T03:28:11;103075.50;;;3.61;84.11
71764;BME280;59602;52.142;5.408;2023-01-29T03:31:02;103080.34;;;3.64;84.10
71764;BME280;59602;52.142;5.408;2023-01-29T03:33:50;103080.06;;;3.65;83.64
71764;BME280;59602;52.142;5.408;2023-01-29T03:36:22;103065.81;;;3.65;83.77
71764;BME280;59602;52.142;5.408;2023-01-29T03:38:52;103059.34;;;3.66;83.66
71764;BME280;59602;52.142;5.408;2023-01-29T03:41:27;103054.78;;;3.66;83.41
71764;BME280;59602;52.142;5.408;2023-01-29T03:46:35;103053.97;;;3.71;83.26
71764;BME280;59602;52.142;5.408;2023-01-29T03:49:18;103050.19;;;3.72;83.64
71764;BME280;59602;52.142;5.408;2023-01-29T03:51:59;103044.78;;;3.72;82.92
71764;BME280;59602;52.142;5.408;2023-01-29T03:57:09;103049.94;;;3.68;83.67
71764;BME280;59602;52.142;5.408;2023-01-29T03:59:51;103041.59;;;3.65;83.66
71764;BME280;59602;52.142;5.408;2023-01-29T04:02:24;103034.59;;;3.69;83.91
71764;BME280;59602;52.142;5.408;2023-01-29T04:05:00;103042.09;;;3.72;83.76
71764;BME280;59602;52.142;5.408;2023-01-29T04:07:28;103037.00;;;3.70;83.45
71764;BME280;59602;52.142;5.408;2023-01-29T04:10:03;103024.91;;;3.68;83.76
71764;BME280;59602;52.142;5.408;2023-01-29T04:12:39;103028.13;;;3.70;83.33
71764;BME280;59602;52.142;5.408;2023-01-29T04:15:10;103027.59;;;3.68;83.40
71764;BME280;59602;52.142;5.408;2023-01-29T04:17:42;103023.31;;;3.67;83.39
71764;BME280;59602;52.142;5.408;2023-01-29T04:20:10;103032.44;;;3.66;83.45
71764;BME280;59602;52.142;5.408;2023-01-29T04:22:38;103020.66;;;3.62;83.37
71764;BME280;59602;52.142;5.408;2023-01-29T04:25:07;103023.34;;;3.62;83.50
71764;BME280;59602;52.142;5.408;2023-01-29T04:30:22;103018.75;;;3.62;83.31
71764;BME280;59602;52.142;5.408;2023-01-29T04:33:03;103021.16;;;3.64;82.91
71764;BME280;59602;52.142;5.408;2023-01-29T04:35:46;103016.34;;;3.61;83.07
71764;BME280;59602;52.142;5.408;2023-01-29T04:38:34;103018.22;;;3.60;83.08
71764;BME280;59602;52.142;5.408;2023-01-29T04:41:10;103005.63;;;3.56;83.04
71764;BME280;59602;52.142;5.408;2023-01-29T04:43:47;103011.00;;;3.56;83.43
71764;BME280;59602;52.142;5.408;2023-01-29T04:46:28;103013.91;;;3.59;83.17
71764;BME280;59602;52.142;5.408;2023-01-29T04:49:05;103015.28;;;3.57;83.03
71764;BME280;59602;52.142;5.408;2023-01-29T04:51:42;103010.47;;;3.53;83.32
71764;BME280;59602;52.142;5.408;2023-01-29T04:57:03;102997.31;;;3.47;83.34
71764;BME280;59602;52.142;5.408;2023-01-29T04:59:35;102994.38;;;3.48;83.53
71764;BME280;59602;52.142;5.408;2023-01-29T05:02:06;102985.75;;;3.51;83.00
71764;BME280;59602;52.142;5.408;2023-01-29T05:04:37;102993.81;;;3.51;83.21
71764;BME280;59602;52.142;5.408;2023-01-29T05:07:07;102994.59;;;3.52;82.62
71764;BME280;59602;52.142;5.408;2023-01-29T05:09:36;102987.34;;;3.52;82.99
71764;BME280;59602;52.142;5.408;2023-01-29T05:12:06;102990.28;;;3.56;82.57
71764;BME280;59602;52.142;5.408;2023-01-29T05:14:34;102986.78;;;3.56;82.33
71764;BME280;59602;52.142;5.408;2023-01-29T05:17:09;102982.78;;;3.48;82.76
71764;BME280;59602;52.142;5.408;2023-01-29T05:19:38;102987.63;;;3.46;82.44
71764;BME280;59602;52.142;5.408;2023-01-29T05:22:05;102987.09;;;3.44;83.08
71764;BME280;59602;52.142;5.408;2023-01-29T05:24:34;102994.63;;;3.47;82.99
71764;BME280;59602;52.142;5.408;2023-01-29T05:27:01;102999.44;;;3.50;82.80
71764;BME280;59602;52.142;5.408;2023-01-29T05:29:47;103005.09;;;3.53;82.34
71764;BME280;59602;52.142;5.408;2023-01-29T05:32:18;103011.31;;;3.49;82.49
71764;BME280;59602;52.142;5.408;2023-01-29T05:34:45;103001.88;;;3.51;82.17
71764;BME280;59602;52.142;5.408;2023-01-29T05:37:12;103001.88;;;3.51;82.36
71764;BME280;59602;52.142;5.408;2023-01-29T05:39:38;102997.56;;;3.50;82.38
71764;BME280;59602;52.142;5.408;2023-01-29T05:42:05;102995.97;;;3.49;82.76
71764;BME280;59602;52.142;5.408;2023-01-29T05:44:31;102999.19;;;3.51;82.13
71764;BME280;59602;52.142;5.408;2023-01-29T05:46:58;102997.06;;;3.48;81.92
71764;BME280;59602;52.142;5.408;2023-01-29T05:49:24;103000.81;;;3.47;82.26
71764;BME280;59602;52.142;5.408;2023-01-29T05:51:51;102997.06;;;3.48;82.49
71764;BME280;59602;52.142;5.408;2023-01-29T05:54:17;103008.31;;;3.50;82.19
71764;BME280;59602;52.142;5.408;2023-01-29T05:56:44;103000.25;;;3.50;82.05
71764;BME280;59602;52.142;5.408;2023-01-29T05:59:10;102991.38;;;3.50;81.99
71764;BME280;59602;52.142;5.408;2023-01-29T06:01:37;102982.53;;;3.49;81.89
71764;BME280;59602;52.142;5.408;2023-01-29T06:04:04;102982.53;;;3.49;81.93
71764;BME280;59602;52.142;5.408;2023-01-29T06:06:31;102968.81;;;3.51;81.83
71764;BME280;59602;52.142;5.408;2023-01-29T06:08:57;102974.19;;;3.51;81.72
71764;BME280;59602;52.142;5.408;2023-01-29T06:11:24;102971.50;;;3.51;81.78
71764;BME280;59602;52.142;5.408;2023-01-29T06:13:50;102969.59;;;3.51;81.53
71764;BME280;59602;52.142;5.408;2023-01-29T06:16:17;102963.13;;;3.52;81.83
71764;BME280;59602;52.142;5.408;2023-01-29T06:18:43;102975.50;;;3.53;81.66
71764;BME280;59602;52.142;5.408;2023-01-29T06:21:12;102963.13;;;3.52;81.16
71764;BME280;59602;52.142;5.408;2023-01-29T06:23:40;102963.13;;;3.52;81.35
71764;BME280;59602;52.142;5.408;2023-01-29T06:26:10;102967.72;;;3.52;81.46
71764;BME280;59602;52.142;5.408;2023-01-29T06:28:38;102957.75;;;3.52;81.50
71764;BME280;59602;52.142;5.408;2023-01-29T06:31:05;102957.75;;;3.52;81.66
71764;BME280;59602;52.142;5.408;2023-01-29T06:33:53;102944.31;;;3.52;81.20
71764;BME280;59602;52.142;5.408;2023-01-29T06:36:21;102956.16;;;3.51;81.62
71764;BME280;59602;52.142;5.408;2023-01-29T06:38:48;102950.25;;;3.49;81.10
71764;BME280;59602;52.142;5.408;2023-01-29T06:41:17;102957.53;;;3.49;80.95
71764;BME280;59602;52.142;5.408;2023-01-29T06:43:45;102949.41;;;3.54;80.53
71764;BME280;59602;52.142;5.408;2023-01-29T06:46:12;102947.81;;;3.53;80.93
71764;BME280;59602;52.142;5.408;2023-01-29T06:48:38;102960.44;;;3.52;80.90
71764;BME280;59602;52.142;5.408;2023-01-29T06:51:07;102966.13;;;3.51;81.01
71764;BME280;59602;52.142;5.408;2023-01-29T06:53:34;102950.78;;;3.51;80.86
71764;BME280;59602;52.142;5.408;2023-01-29T06:56:01;102944.31;;;3.52;80.64
71764;BME280;59602;52.142;5.408;2023-01-29T06:58:28;102953.19;;;3.53;80.64
71764;BME280;59602;52.142;5.408;2023-01-29T07:01:02;102949.97;;;3.51;80.50
71764;BME280;59602;52.142;5.408;2023-01-29T07:03:29;102949.97;;;3.51;80.57
71764;BME280;59602;52.142;5.408;2023-01-29T07:05:56;102942.44;;;3.53;80.45
71764;BME280;59602;52.142;5.408;2023-01-29T07:08:22;102946.47;;;3.50;80.47
71764;BME280;59602;52.142;5.408;2023-01-29T07:10:49;102940.03;;;3.51;80.10
71764;BME280;59602;52.142;5.408;2023-01-29T07:13:16;102953.19;;;3.53;80.03
71764;BME280;59602;52.142;5.408;2023-01-29T07:15:42;102948.63;;;3.53;80.16
71764;BME280;59602;52.142;5.408;2023-01-29T07:18:10;102948.63;;;3.53;80.25
71764;BME280;59602;52.142;5.408;2023-01-29T07:20:39;102940.53;;;3.53;80.19
71764;BME280;59602;52.142;5.408;2023-01-29T07:23:07;102955.88;;;3.53;80.48
71764;BME280;59602;52.142;5.408;2023-01-29T07:25:34;102947.81;;;3.53;80.07
71764;BME280;59602;52.142;5.408;2023-01-29T07:28:00;102954.78;;;3.54;80.52
71764;BME280;59602;52.142;5.408;2023-01-29T07:30:27;102947.53;;;3.54;80.82
71764;BME280;59602;52.142;5.408;2023-01-29T07:32:54;102947.53;;;3.54;80.19
71764;BME280;59602;52.142;5.408;2023-01-29T07:35:21;102947.25;;;3.56;80.40
71764;BME280;59602;52.142;5.408;2023-01-29T07:37:48;102958.00;;;3.56;80.75
71764;BME280;59602;52.142;5.408;2023-01-29T07:40:15;102947.53;;;3.54;80.63
71764;BME280;59602;52.142;5.408;2023-01-29T07:42:43;102945.66;;;3.55;80.67
71764;BME280;59602;52.142;5.408;2023-01-29T07:45:10;102937.59;;;3.55;80.93
71764;BME280;59602;52.142;5.408;2023-01-29T07:47:37;102931.38;;;3.54;80.56
71764;BME280;59602;52.142;5.408;2023-01-29T07:50:05;102931.38;;;3.54;80.40
71764;BME280;59602;52.142;5.408;2023-01-29T07:52:32;102928.94;;;3.58;80.57
71764;BME280;59602;52.142;5.408;2023-01-29T07:54:59;102925.47;;;3.58;80.24
71764;BME280;59602;52.142;5.408;2023-01-29T07:57:25;102923.56;;;3.58;80.20
71764;BME280;59602;52.142;5.408;2023-01-29T07:59:52;102917.91;;;3.60;80.16
71764;BME280;59602;52.142;5.408;2023-01-29T08:02:20;102913.06;;;3.62;80.40
71764;BME280;59602;52.142;5.408;2023-01-29T08:04:46;102914.94;;;3.61;80.43
71764;BME280;59602;52.142;5.408;2023-01-29T08:07:13;102914.13;;;3.61;80.02
71764;BME280;59602;52.142;5.408;2023-01-29T08:09:41;102910.38;;;3.62;79.93
71764;BME280;59602;52.142;5.408;2023-01-29T08:12:08;102907.16;;;3.60;79.91
71764;BME280;59602;52.142;5.408;2023-01-29T08:14:34;102907.97;;;3.60;79.55
71764;BME280;59602;52.142;5.408;2023-01-29T08:17:01;102896.94;;;3.62;79.66
71764;BME280;59602;52.142;5.408;2023-01-29T08:19:27;102903.63;;;3.64;79.40
71764;BME280;59602;52.142;5.408;2023-01-29T08:21:56;102903.91;;;3.63;79.70
71764;BME280;59602;52.142;5.408;2023-01-29T08:24:22;102904.94;;;3.67;79.40
71764;BME280;59602;52.142;5.408;2023-01-29T08:27:06;102904.94;;;3.67;79.29
71764;BME280;59602;52.142;5.408;2023-01-29T08:29:33;102907.91;;;3.65;79.45
71764;BME280;59602;52.142;5.408;2023-01-29T08:32:00;102904.41;;;3.65;79.78
71764;BME280;59602;52.142;5.408;2023-01-29T08:34:26;102898.47;;;3.68;79.41
71764;BME280;59602;52.142;5.408;2023-01-29T08:36:53;102885.84;;;3.68;79.32
71764;BME280;59602;52.142;5.408;2023-01-29T08:39:20;102883.94;;;3.69;79.58
71764;BME280;59602;52.142;5.408;2023-01-29T08:41:46;102886.34;;;3.70;79.36
71764;BME280;59602;52.142;5.408;2023-01-29T08:44:14;102882.31;;;3.73;79.66
71764;BME280;59602;52.142;5.408;2023-01-29T08:46:40;102878.53;;;3.74;79.23
71764;BME280;59602;52.142;5.408;2023-01-29T08:49:08;102878.53;;;3.74;79.40
71764;BME280;59602;52.142;5.408;2023-01-29T08:51:34;102872.03;;;3.75;79.41
71764;BME280;59602;52.142;5.408;2023-01-29T08:54:02;102871.50;;;3.78;78.97
71764;BME280;59602;52.142;5.408;2023-01-29T08:56:28;102869.59;;;3.79;79.00
71764;BME280;59602;52.142;5.408;2023-01-29T08:58:55;102870.41;;;3.79;78.73
71764;BME280;59602;52.142;5.408;2023-01-29T09:01:23;102873.09;;;3.79;79.02
71764;BME280;59602;52.142;5.408;2023-01-29T09:03:50;102877.09;;;3.82;79.06
71764;BME280;59602;52.142;5.408;2023-01-29T09:06:19;102864.75;;;3.81;78.92
71764;BME280;59602;52.142;5.408;2023-01-29T09:08:46;102865.28;;;3.83;78.94
71764;BME280;59602;52.142;5.408;2023-01-29T09:11:13;102866.34;;;3.82;78.52
71764;BME280;59602;52.142;5.408;2023-01-29T09:13:40;102866.84;;;3.84;78.63
71764;BME280;59602;52.142;5.408;2023-01-29T09:16:06;102867.38;;;3.86;78.73
71764;BME280;59602;52.142;5.408;2023-01-29T09:18:33;102869.00;;;3.87;78.77
71764;BME280;59602;52.142;5.408;2023-01-29T09:20:59;102870.31;;;3.89;78.55
71764;BME280;59602;52.142;5.408;2023-01-29T09:23:28;102863.03;;;3.90;78.62
71764;BME280;59602;52.142;5.408;2023-01-29T09:25:55;102868.16;;;3.91;78.91
71764;BME280;59602;52.142;5.408;2023-01-29T09:28:22;102869.19;;;3.95;78.36
71764;BME280;59602;52.142;5.408;2023-01-29T09:30:49;102875.94;;;3.93;78.80
71764;BME280;59602;52.142;5.408;2023-01-29T09:33:16;102879.13;;;3.95;78.77
71764;BME280;59602;52.142;5.408;2023-01-29T09:35:43;102882.34;;;3.97;78.98
71764;BME280;59602;52.142;5.408;2023-01-29T09:38:13;102870.78;;;3.97;78.83
71764;BME280;59602;52.142;5.408;2023-01-29T09:40:50;102874.00;;;3.99;78.66
71764;BME280;59602;52.142;5.408;2023-01-29T09:43:26;102879.91;;;4.01;78.88
71764;BME280;59602;52.142;5.408;2023-01-29T09:46:00;102874.75;;;4.04;78.38
71764;BME280;59602;52.142;5.408;2023-01-29T09:48:31;102872.28;;;4.08;78.48
71764;BME280;59602;52.142;5.408;2023-01-29T09:51:05;102881.69;;;4.10;78.13
71764;BME280;59602;52.142;5.408;2023-01-29T09:53:44;102868.81;;;4.07;77.84
71764;BME280;59602;52.142;5.408;2023-01-29T09:56:19;102874.72;;;4.09;78.22
71764;BME280;59602;52.142;5.408;2023-01-29T09:58:46;102883.00;;;4.13;78.31
71764;BME280;59602;52.142;5.408;2023-01-29T10:07:17;102866.03;;;4.18;77.93
71764;BME280;59602;52.142;5.408;2023-01-29T10:09:59;102865.16;;;4.22;77.91
71764;BME280;59602;52.142;5.408;2023-01-29T10:20:42;102854.31;;;4.27;77.82
71764;BME280;59602;52.142;5.408;2023-01-29T10:23:20;102843.03;;;4.25;77.99
71764;BME280;59602;52.142;5.408;2023-01-29T10:25:48;102836.84;;;4.25;77.76
71764;BME280;59602;52.142;5.408;2023-01-29T10:28:38;102847.31;;;4.26;78.57
71764;BME280;59602;52.142;5.408;2023-01-29T10:33:42;102838.97;;;4.28;77.79
71764;BME280;59602;52.142;5.408;2023-01-29T10:36:33;102832.78;;;4.27;78.11
71764;BME280;59602;52.142;5.408;2023-01-29T10:39:01;102825.00;;;4.26;77.90
71764;BME280;59602;52.142;5.408;2023-01-29T10:41:45;102821.75;;;4.29;78.01
71764;BME280;59602;52.142;5.408;2023-01-29T10:44:22;102812.56;;;4.30;78.44
71764;BME280;59602;52.142;5.408;2023-01-29T10:52:14;102803.63;;;4.34;78.22
71764;BME280;59602;52.142;5.408;2023-01-29T10:58:06;102796.56;;;4.39;77.86
71764;BME280;59602;52.142;5.408;2023-01-29T11:00:38;102789.00;;;4.41;78.16
71764;BME280;59602;52.142;5.408;2023-01-29T11:03:15;102790.59;;;4.42;77.73
71764;BME280;59602;52.142;5.408;2023-01-29T11:05:58;102788.41;;;4.44;77.29
71764;BME280;59602;52.142;5.408;2023-01-29T11:08:37;102786.31;;;4.41;77.59
71764;BME280;59602;52.142;5.408;2023-01-29T11:11:14;102779.31;;;4.40;77.17
71764;BME280;59602;52.142;5.408;2023-01-29T11:16:17;102772.84;;;4.41;77.68
71764;BME280;59602;52.142;5.408;2023-01-29T11:18:58;102772.34;;;4.39;77.57
71764;BME280;59602;52.142;5.408;2023-01-29T11:21:27;102767.22;;;4.37;77.53
71764;BME280;59602;52.142;5.408;2023-01-29T11:24:15;102771.81;;;4.36;77.68
71764;BME280;59602;52.142;5.408;2023-01-29T11:26:47;102765.31;;;4.37;77.78
71764;BME280;59602;52.142;5.408;2023-01-29T11:29:41;102772.34;;;4.39;77.59
71764;BME280;59602;52.142;5.408;2023-01-29T11:35:01;102771.81;;;4.36;77.42
71764;BME280;59602;52.142;5.408;2023-01-29T11:37:40;102763.75;;;4.36;77.96
71764;BME280;59602;52.142;5.408;2023-01-29T11:40:34;102756.47;;;4.37;77.63
71764;BME280;59602;52.142;5.408;2023-01-29T11:45:44;102754.06;;;4.35;78.13
71764;BME280;59602;52.142;5.408;2023-01-29T11:48:15;102750.28;;;4.36;78.06
71764;BME280;59602;52.142;5.408;2023-01-29T11:50:50;102741.09;;;4.37;78.22
71764;BME280;59602;52.142;5.408;2023-01-29T11:53:32;102735.44;;;4.39;78.10
71764;BME280;59602;52.142;5.408;2023-01-29T11:56:02;102740.25;;;4.42;78.31
71764;BME280;59602;52.142;5.408;2023-01-29T11:58:32;102739.44;;;4.42;78.35
71764;BME280;59602;52.142;5.408;2023-01-29T12:01:00;102734.34;;;4.40;78.74
71764;BME280;59602;52.142;5.408;2023-01-29T12:03:33;102724.38;;;4.41;78.50
71764;BME280;59602;52.142;5.408;2023-01-29T12:06:05;102718.69;;;4.42;78.66
71764;BME280;59602;52.142;5.408;2023-01-29T12:08:36;102723.50;;;4.45;78.90
71764;BME280;59602;52.142;5.408;2023-01-29T12:11:11;102712.44;;;4.47;79.22
71764;BME280;59602;52.142;5.408;2023-01-29T12:13:40;102710.03;;;4.45;78.97
71764;BME280;59602;52.142;5.408;2023-01-29T12:16:15;102697.38;;;4.46;79.06
71764;BME280;59602;52.142;5.408;2023-01-29T12:18:52;102690.91;;;4.47;79.31
71764;BME280;59602;52.142;5.408;2023-01-29T12:21:37;102689.78;;;4.48;79.38
71764;BME280;59602;52.142;5.408;2023-01-29T12:24:24;102679.31;;;4.46;79.63
71764;BME280;59602;52.142;5.408;2023-01-29T12:26:59;102680.13;;;4.47;79.17
71764;BME280;59602;52.142;5.408;2023-01-29T12:32:28;102666.84;;;4.50;79.66
71764;BME280;59602;52.142;5.408;2023-01-29T12:35:05;102666.28;;;4.53;79.76
71764;BME280;59602;52.142;5.408;2023-01-29T12:37:45;102657.38;;;4.53;79.59
71764;BME280;59602;52.142;5.408;2023-01-29T12:40:16;102657.69;;;4.51;79.71
71764;BME280;59602;52.142;5.408;2023-01-29T12:42:49;102648.50;;;4.52;79.38
71764;BME280;59602;52.142;5.408;2023-01-29T12:45:20;102651.50;;;4.51;79.40
71764;BME280;59602;52.142;5.408;2023-01-29T12:47:58;102642.34;;;4.52;79.64
71764;BME280;59602;52.142;5.408;2023-01-29T12:50:32;102636.66;;;4.53;79.27
71764;BME280;59602;52.142;5.408;2023-01-29T12:53:21;102628.06;;;4.51;80.01
71764;BME280;59602;52.142;5.408;2023-01-29T12:55:52;102611.91;;;4.51;79.79
71764;BME280;59602;52.142;5.408;2023-01-29T12:58:28;102608.09;;;4.52;79.99
71764;BME280;59602;52.142;5.408;2023-01-29T13:01:02;102607.31;;;4.52;80.17
71764;BME280;59602;52.142;5.408;2023-01-29T13:06:07;102587.66;;;4.51;80.39
71764;BME280;59602;52.142;5.408;2023-01-29T13:08:40;102578.19;;;4.54;80.01
71764;BME280;59602;52.142;5.408;2023-01-29T13:11:18;102563.63;;;4.55;79.90
71764;BME280;59602;52.142;5.408;2023-01-29T13:13:55;102559.84;;;4.56;80.10
71764;BME280;59602;52.142;5.408;2023-01-29T13:16:27;102555.53;;;4.55;80.24
71764;BME280;59602;52.142;5.408;2023-01-29T13:19:01;102541.50;;;4.58;80.20
71764;BME280;59602;52.142;5.408;2023-01-29T13:21:35;102538.19;;;4.61;80.27
71764;BME280;59602;52.142;5.408;2023-01-29T13:24:12;102525.44;;;4.67;79.95
71764;BME280;59602;52.142;5.408;2023-01-29T13:26:43;102526.16;;;4.72;80.48
71764;BME280;59602;52.142;5.408;2023-01-29T13:29:28;102517.44;;;4.75;80.19
71764;BME280;59602;52.142;5.408;2023-01-29T13:31:57;102514.75;;;4.75;79.86
71764;BME280;59602;52.142;5.408;2023-01-29T13:34:27;102511.50;;;4.78;80.70
71764;BME280;59602;52.142;5.408;2023-01-29T13:37:00;102508.97;;;4.82;80.21
71764;BME280;59602;52.142;5.408;2023-01-29T13:39:30;102507.59;;;4.85;80.67
71764;BME280;59602;52.142;5.408;2023-01-29T13:41:59;102503.50;;;4.87;80.29
71764;BME280;59602;52.142;5.408;2023-01-29T13:44:33;102499.41;;;4.90;80.25
71764;BME280;59602;52.142;5.408;2023-01-29T13:47:04;102501.00;;;4.91;80.48
71764;BME280;59602;52.142;5.408;2023-01-29T13:49:37;102503.69;;;4.91;79.85
71764;BME280;59602;52.142;5.408;2023-01-29T13:52:27;102499.72;;;4.88;79.92
71764;BME280;59602;52.142;5.408;2023-01-29T13:54:58;102497.50;;;4.90;80.09
71764;BME280;59602;52.142;5.408;2023-01-29T13:57:35;102494.53;;;4.92;80.45
71764;BME280;59602;52.142;5.408;2023-01-29T14:00:05;102497.50;;;4.90;79.98
71764;BME280;59602;52.142;5.408;2023-01-29T14:02:33;102504.19;;;4.93;80.35
71764;BME280;59602;52.142;5.408;2023-01-29T14:07:58;102504.19;;;4.93;80.07
71764;BME280;59602;52.142;5.408;2023-01-29T14:10:27;102497.72;;;4.94;80.53
71764;BME280;59602;52.142;5.408;2023-01-29T14:15:44;102485.84;;;4.95;80.82
71764;BME280;59602;52.142;5.408;2023-01-29T14:18:18;102479.34;;;4.96;80.60
71764;BME280;59602;52.142;5.408;2023-01-29T14:23:28;102479.53;;;4.99;80.16
71764;BME280;59602;52.142;5.408;2023-01-29T14:25:58;102479.84;;;4.98;80.28
71764;BME280;59602;52.142;5.408;2023-01-29T14:28:28;102476.34;;;4.97;80.92
71764;BME280;59602;52.142;5.408;2023-01-29T14:30:55;102485.72;;;5.00;80.42